createdAt,value
2019-05-30T00:01:27.540Z,9.4
2019-05-30T00:11:26.260Z,8.2
2019-05-30T00:21:27.396Z,7.6
2019-05-30T00:31:27.969Z,6.9
2019-05-30T00:41:26.602Z,8.5
2019-05-30T00:51:27.904Z,4.7
2019-05-30T01:01:26.789Z,5.2
2019-05-30T01:11:26.741Z,6.8
2019-05-30T01:21:26.584Z,6.9
2019-05-30T01:31:26.131Z,8.7
2019-05-30T01:41:27.488Z,5.6
2019-05-30T01:51:27.031Z,5.7
2019-05-30T02:01:26.549Z,5.5
2019-05-30T02:11:28.138Z,7.3
2019-05-30T02:21:26.945Z,6.0
2019-05-30T02:31:39.893Z,6.3
2019-05-30T02:41:25.589Z,3.9
2019-05-30T02:51:28.482Z,4.7
2019-05-30T03:01:26.485Z,8.6
2019-05-30T03:11:28.219Z,4.6
2019-05-30T03:21:27.460Z,6.6
2019-05-30T03:31:30.242Z,5.5
2019-05-30T03:41:31.283Z,3.7
2019-05-30T03:51:26.575Z,9.7
2019-05-30T04:01:27.263Z,4.1
2019-05-30T04:11:26.827Z,2.8
2019-05-30T04:21:26.685Z,3.0
2019-05-30T04:31:26.079Z,4.6
2019-05-30T04:41:27.275Z,3.3
2019-05-30T04:51:26.916Z,4.4
2019-05-30T05:01:29.878Z,4.9
2019-05-30T05:11:27.023Z,3.5
2019-05-30T05:21:29.730Z,6.2
2019-05-30T05:31:26.988Z,7.6
2019-05-30T05:41:26.139Z,4.3
2019-05-30T05:51:29.714Z,3.6
2019-05-30T06:01:30.832Z,10.3
2019-05-30T06:11:26.369Z,2.5
2019-05-30T06:21:28.138Z,3.9
2019-05-30T06:31:28.676Z,4.6
2019-05-30T06:41:27.711Z,2.9
2019-05-30T06:51:27.583Z,3.3
2019-05-30T07:01:27.880Z,3.1
2019-05-30T07:11:27.415Z,6.0
2019-05-30T07:21:29.753Z,6.0
2019-05-30T07:31:27.967Z,5.4
2019-05-30T07:41:28.610Z,4.3
2019-05-30T07:51:30.531Z,4.7
2019-05-30T08:01:28.046Z,4.5
2019-05-30T08:11:27.481Z,3.6
2019-05-30T08:21:29.805Z,4.2
2019-05-30T08:31:30.349Z,3.9
2019-05-30T08:41:27.563Z,5.0
2019-05-30T08:51:26.435Z,4.7
2019-05-30T09:01:28.256Z,3.2
2019-05-30T09:11:27.590Z,3.5
2019-05-30T09:21:28.043Z,5.4
2019-05-30T09:31:27.105Z,8.3
2019-05-30T09:41:27.498Z,3.7
2019-05-30T09:51:35.084Z,4.7
2019-05-30T10:01:27.727Z,4.2
2019-05-30T10:11:26.657Z,4.0
2019-05-30T10:21:27.199Z,5.0
2019-05-30T10:31:29.673Z,6.7
2019-05-30T10:41:34.398Z,3.7
2019-05-30T10:51:28.260Z,4.8
2019-05-30T11:01:28.697Z,2.7
2019-05-30T11:11:27.158Z,7.6
2019-05-30T11:21:32.539Z,3.3
2019-05-30T11:31:28.110Z,5.2
2019-05-30T11:41:34.021Z,6.1
2019-05-30T11:51:32.025Z,8.7
2019-05-30T12:01:26.552Z,3.9
2019-05-30T12:11:33.073Z,6.5
2019-05-30T12:21:30.607Z,2.8
2019-05-30T12:31:28.055Z,5.1
2019-05-30T12:41:27.048Z,7.7
2019-05-30T12:51:36.053Z,6.7
2019-05-30T13:01:28.255Z,7.3
2019-05-30T13:11:27.873Z,8.0
2019-05-30T13:21:27.873Z,6.0
2019-05-30T13:31:36.925Z,6.6
2019-05-30T13:41:27.706Z,5.6
2019-05-30T13:51:30.582Z,5.7
2019-05-30T14:01:28.864Z,7.3
2019-05-30T14:11:26.564Z,13.4
2019-05-30T14:21:26.653Z,5.0
2019-05-30T14:31:27.225Z,4.5
2019-05-30T14:41:25.677Z,6.0
2019-05-30T14:51:27.620Z,10.2
2019-05-30T15:01:28.153Z,6.8
2019-05-30T15:11:27.245Z,7.5
2019-05-30T15:21:27.177Z,5.6
2019-05-30T15:31:27.858Z,7.4
2019-05-30T15:41:27.215Z,5.4
2019-05-30T15:51:29.330Z,11.8
2019-05-30T16:01:30.306Z,7.3
2019-05-30T16:11:27.783Z,6.5
2019-05-30T16:21:28.545Z,7.5
2019-05-30T16:31:27.330Z,9.8
2019-05-30T16:41:29.186Z,10.4
2019-05-30T16:51:28.248Z,8.0
2019-05-30T17:01:26.765Z,6.4
2019-05-30T17:11:31.904Z,8.6
2019-05-30T17:21:27.459Z,12.3
2019-05-30T17:31:33.352Z,12.8
2019-05-30T17:41:32.838Z,11.3
2019-05-30T17:51:27.815Z,12.3
2019-05-30T18:01:29.129Z,12.8
2019-05-30T18:11:33.036Z,15.1
2019-05-30T18:21:32.559Z,11.7
2019-05-30T18:31:33.036Z,15.9
2019-05-30T18:41:37.081Z,14.3
2019-05-30T18:51:28.149Z,11.9
2019-05-30T19:01:43.934Z,15.1
2019-05-30T19:31:33.311Z,19.7
2019-05-30T19:41:56.990Z,14.8
2019-05-30T19:51:29.355Z,18.4
2019-05-30T20:01:27.112Z,17.6
2019-05-30T20:11:30.746Z,17.7
2019-05-30T20:21:26.988Z,21.0
2019-05-30T20:31:29.093Z,27.2
2019-05-30T20:41:30.087Z,22.1
2019-05-30T20:51:28.597Z,25.5
2019-05-30T21:01:27.170Z,28.7
2019-05-30T21:11:27.673Z,25.2
2019-05-30T21:21:26.954Z,20.3
2019-05-30T21:31:27.518Z,24.2
2019-05-30T21:41:27.490Z,23.3
2019-05-30T21:51:27.167Z,24.1
2019-05-30T22:01:27.374Z,26.6
2019-05-30T22:11:27.174Z,29.8
2019-05-30T22:21:28.184Z,24.9
2019-05-30T22:31:28.551Z,25.1
2019-05-30T22:41:49.978Z,25.0
2019-05-30T22:51:28.615Z,26.5
2019-05-30T23:01:27.909Z,27.2
2019-05-30T23:11:27.664Z,24.3
2019-05-30T23:21:28.934Z,22.7
2019-05-30T23:31:29.205Z,26.6
2019-05-30T23:41:29.511Z,27.8
2019-05-30T23:52:39.172Z,26.8
